createdAt,value
2018-09-11T00:00:38.920Z,19.60
2018-09-11T00:01:42.408Z,19.60
2018-09-11T00:02:45.789Z,19.60
2018-09-11T00:03:49.261Z,19.60
2018-09-11T00:04:52.777Z,19.50
2018-09-11T00:05:56.180Z,19.50
2018-09-11T00:06:59.568Z,19.50
2018-09-11T00:08:02.995Z,19.50
2018-09-11T00:09:09.420Z,19.50
2018-09-11T00:10:13.951Z,19.50
2018-09-11T00:11:17.364Z,19.50
2018-09-11T00:12:20.821Z,19.50
2018-09-11T00:13:24.223Z,19.50
2018-09-11T00:14:27.779Z,19.50
2018-09-11T00:15:31.168Z,19.40
2018-09-11T00:16:34.583Z,19.40
2018-09-11T00:17:37.980Z,19.40
2018-09-11T00:18:41.544Z,19.40
2018-09-11T00:19:45.036Z,19.40
2018-09-11T00:20:48.464Z,19.40
2018-09-11T00:21:51.946Z,19.40
2018-09-11T00:22:55.414Z,19.40
2018-09-11T00:23:58.834Z,19.40
2018-09-11T00:25:02.228Z,19.40
2018-09-11T00:26:05.667Z,19.40
2018-09-11T00:27:09.145Z,19.40
2018-09-11T00:28:12.605Z,19.40
2018-09-11T00:29:15.997Z,19.40
2018-09-11T00:30:19.440Z,19.40
2018-09-11T00:31:22.982Z,19.40
2018-09-11T00:32:26.464Z,19.40
2018-09-11T00:33:29.876Z,19.40
2018-09-11T00:34:33.260Z,19.40
2018-09-11T00:35:36.684Z,19.30
2018-09-11T00:36:40.200Z,19.30
2018-09-11T00:37:43.584Z,19.40
2018-09-11T00:38:47.000Z,19.40
2018-09-11T00:39:50.433Z,19.40
2018-09-11T00:40:53.883Z,19.30
2018-09-11T00:41:57.275Z,19.30
2018-09-11T00:43:00.696Z,19.30
2018-09-11T00:44:04.101Z,19.30
2018-09-11T00:45:07.527Z,19.30
2018-09-11T00:46:10.919Z,19.30
2018-09-11T00:47:14.432Z,19.30
2018-09-11T00:48:17.956Z,19.30
2018-09-11T00:49:21.573Z,19.30
2018-09-11T00:50:25.012Z,19.30
2018-09-11T00:51:28.770Z,19.30
2018-09-11T00:52:32.176Z,19.30
2018-09-11T00:53:35.564Z,19.30
2018-09-11T00:54:39.017Z,19.30
2018-09-11T00:55:42.416Z,19.30
2018-09-11T00:56:45.823Z,19.30
2018-09-11T00:57:49.248Z,19.30
2018-09-11T00:58:53.003Z,19.30
2018-09-11T00:59:56.393Z,19.30
2018-09-11T01:00:59.847Z,19.30
2018-09-11T01:02:03.279Z,19.30
2018-09-11T01:03:07.095Z,19.20
2018-09-11T01:04:10.512Z,19.20
2018-09-11T01:05:13.941Z,19.20
2018-09-11T01:06:17.316Z,19.20
2018-09-11T01:07:20.764Z,19.30
2018-09-11T01:08:24.195Z,19.30
2018-09-11T01:09:27.585Z,19.30
2018-09-11T01:10:30.998Z,19.20
2018-09-11T01:11:34.561Z,19.30
2018-09-11T01:12:38.013Z,19.20
2018-09-11T01:13:41.411Z,19.20
2018-09-11T01:14:45.073Z,19.20
2018-09-11T01:15:48.580Z,19.20
2018-09-11T01:16:51.977Z,19.20
2018-09-11T01:17:55.479Z,19.20
2018-09-11T01:18:58.895Z,19.20
2018-09-11T01:20:02.360Z,19.20
2018-09-11T01:21:05.892Z,19.20
2018-09-11T01:22:09.292Z,19.20
2018-09-11T01:23:12.761Z,19.20
2018-09-11T01:24:16.266Z,19.20
2018-09-11T01:25:19.673Z,19.20
2018-09-11T01:26:23.141Z,19.20
2018-09-11T01:27:26.635Z,19.20
2018-09-11T01:28:30.245Z,19.20
2018-09-11T01:29:33.627Z,19.10
2018-09-11T01:30:37.085Z,19.20
2018-09-11T01:31:40.593Z,19.20
2018-09-11T01:32:44.041Z,19.10
2018-09-11T01:33:47.472Z,19.10
2018-09-11T01:34:50.869Z,19.10
2018-09-11T01:35:54.308Z,19.10
2018-09-11T01:36:58.373Z,19.10
2018-09-11T01:38:01.848Z,19.10
2018-09-11T01:39:08.165Z,19.10
2018-09-11T01:40:11.564Z,19.10
2018-09-11T01:41:15.033Z,19.10
2018-09-11T01:42:18.470Z,19.10
2018-09-11T01:43:22.177Z,19.10
2018-09-11T01:44:25.588Z,19.10
2018-09-11T01:45:29.041Z,19.10
2018-09-11T01:46:32.448Z,19.10
2018-09-11T01:47:35.836Z,19.10
2018-09-11T01:48:39.254Z,19.10
2018-09-11T01:49:42.659Z,19.10
2018-09-11T01:50:46.120Z,19.00
2018-09-11T01:51:49.532Z,19.10
2018-09-11T01:52:53.023Z,19.10
2018-09-11T01:53:56.429Z,19.10
2018-09-11T01:54:59.834Z,19.00
2018-09-11T01:56:03.560Z,19.00
2018-09-11T01:57:07.292Z,19.00
2018-09-11T01:58:10.694Z,19.00
2018-09-11T01:59:14.197Z,19.00
2018-09-11T02:00:18.610Z,19.00
2018-09-11T02:01:22.040Z,19.00
2018-09-11T02:02:25.473Z,19.00
2018-09-11T02:03:29.043Z,19.00
2018-09-11T02:04:32.484Z,19.00
2018-09-11T02:05:35.985Z,19.00
2018-09-11T02:06:39.391Z,19.00
2018-09-11T02:07:43.573Z,19.00
2018-09-11T02:08:47.007Z,19.00
2018-09-11T02:09:50.519Z,19.00
2018-09-11T02:10:53.906Z,19.00
2018-09-11T02:11:57.363Z,19.00
2018-09-11T02:13:00.802Z,19.00
2018-09-11T02:14:04.364Z,19.00
2018-09-11T02:15:08.559Z,19.00
2018-09-11T02:16:12.258Z,19.00
2018-09-11T02:17:15.764Z,19.00
2018-09-11T02:18:19.175Z,19.00
2018-09-11T02:19:22.633Z,19.00
2018-09-11T02:20:26.080Z,19.00
2018-09-11T02:21:29.540Z,18.90
2018-09-11T02:22:33.057Z,18.90
2018-09-11T02:23:36.480Z,18.90
2018-09-11T02:24:39.872Z,18.90
2018-09-11T02:25:43.417Z,18.90
2018-09-11T02:26:46.800Z,18.90
2018-09-11T02:27:51.475Z,18.90
2018-09-11T02:28:54.968Z,18.90
2018-09-11T02:29:58.464Z,18.90
2018-09-11T02:31:01.855Z,18.90
2018-09-11T02:32:05.424Z,18.90
2018-09-11T02:33:08.862Z,18.90
2018-09-11T02:34:12.245Z,18.90
2018-09-11T02:35:15.665Z,18.80
2018-09-11T02:36:19.144Z,18.90
2018-09-11T02:37:22.836Z,18.90
2018-09-11T02:38:26.528Z,18.90
2018-09-11T02:39:29.977Z,18.90
2018-09-11T02:40:33.556Z,18.90
2018-09-11T02:41:37.342Z,18.90
2018-09-11T02:42:40.861Z,18.80
2018-09-11T02:43:44.287Z,18.90
2018-09-11T02:44:47.712Z,18.80
2018-09-11T02:45:51.116Z,18.80
2018-09-11T02:46:54.519Z,18.80
2018-09-11T02:47:57.925Z,18.80
2018-09-11T02:49:01.359Z,18.80
2018-09-11T02:50:05.620Z,18.80
2018-09-11T02:51:09.113Z,18.80
2018-09-11T02:52:12.651Z,18.80
2018-09-11T02:53:16.107Z,18.80
2018-09-11T02:54:19.491Z,18.80
2018-09-11T02:55:22.904Z,18.80
2018-09-11T02:56:26.336Z,18.80
2018-09-11T02:57:29.740Z,18.80
2018-09-11T02:58:33.163Z,18.80
2018-09-11T02:59:36.608Z,18.80
2018-09-11T03:00:40.016Z,18.80
2018-09-11T03:01:43.431Z,18.80
2018-09-11T03:02:46.896Z,18.80
2018-09-11T03:03:50.316Z,18.70
2018-09-11T03:04:53.756Z,18.70
2018-09-11T03:05:57.165Z,18.70
2018-09-11T03:07:00.564Z,18.70
2018-09-11T03:08:03.980Z,18.70
2018-09-11T03:09:07.782Z,18.70
2018-09-11T03:10:11.175Z,18.70
2018-09-11T03:11:14.644Z,18.70
2018-09-11T03:12:18.094Z,18.70
2018-09-11T03:13:21.567Z,18.70
2018-09-11T03:14:24.968Z,18.70
2018-09-11T03:15:28.448Z,18.70
2018-09-11T03:16:31.840Z,18.70
2018-09-11T03:17:35.432Z,18.70
2018-09-11T03:18:38.953Z,18.70
2018-09-11T03:19:42.385Z,18.70
2018-09-11T03:20:45.776Z,18.70
2018-09-11T03:21:49.219Z,18.60
2018-09-11T03:22:52.621Z,18.60
2018-09-11T03:23:56.057Z,18.60
2018-09-11T03:24:59.581Z,18.60
2018-09-11T03:26:03.015Z,18.60
2018-09-11T03:27:06.442Z,18.60
2018-09-11T03:28:09.917Z,18.60
2018-09-11T03:29:13.336Z,18.60
2018-09-11T03:30:16.747Z,18.60
2018-09-11T03:31:20.259Z,18.60
2018-09-11T03:32:23.756Z,18.60
2018-09-11T03:33:27.292Z,18.60
2018-09-11T03:34:30.696Z,18.60
2018-09-11T03:35:34.131Z,18.60
2018-09-11T03:36:37.543Z,18.60
2018-09-11T03:37:40.990Z,18.50
2018-09-11T03:38:44.592Z,18.60
2018-09-11T03:39:48.016Z,18.60
2018-09-11T03:40:51.580Z,18.50
2018-09-11T03:41:55.114Z,18.50
2018-09-11T03:42:58.605Z,18.50
2018-09-11T03:44:02.046Z,18.50
2018-09-11T03:45:05.887Z,18.50
2018-09-11T03:46:09.288Z,18.50
2018-09-11T03:47:12.692Z,18.50
2018-09-11T03:48:18.047Z,18.50
2018-09-11T03:49:21.460Z,18.50
2018-09-11T03:50:24.873Z,18.50
2018-09-11T03:51:28.388Z,18.50
2018-09-11T03:52:31.820Z,18.50
2018-09-11T03:53:35.233Z,18.50
2018-09-11T03:54:38.668Z,18.50
2018-09-11T03:55:42.060Z,18.50
2018-09-11T03:56:45.452Z,18.50
2018-09-11T03:57:48.963Z,18.50
2018-09-11T03:58:52.508Z,18.50
2018-09-11T03:59:55.893Z,18.50
2018-09-11T04:00:59.380Z,18.50
2018-09-11T04:02:02.961Z,18.50
2018-09-11T04:03:06.409Z,18.50
2018-09-11T04:04:09.839Z,18.50
2018-09-11T04:05:13.260Z,18.50
2018-09-11T04:06:16.636Z,18.50
2018-09-11T04:07:20.201Z,18.40
2018-09-11T04:08:23.693Z,18.40
2018-09-11T04:09:27.103Z,18.40
2018-09-11T04:10:30.551Z,18.40
2018-09-11T04:11:33.951Z,18.40
2018-09-11T04:12:37.375Z,18.40
2018-09-11T04:13:40.829Z,18.40
2018-09-11T04:14:44.231Z,18.40
2018-09-11T04:15:47.647Z,18.40
2018-09-11T04:16:51.080Z,18.40
2018-09-11T04:17:54.471Z,18.30
2018-09-11T04:18:57.904Z,18.30
2018-09-11T04:20:01.305Z,18.30
2018-09-11T04:21:04.721Z,18.30
2018-09-11T04:22:08.137Z,18.30
2018-09-11T04:23:11.702Z,18.30
2018-09-11T04:24:15.150Z,18.30
2018-09-11T04:25:18.565Z,18.30
2018-09-11T04:26:22.040Z,18.30
2018-09-11T04:27:25.483Z,18.30
2018-09-11T04:28:29.055Z,18.30
2018-09-11T04:29:32.549Z,18.30
2018-09-11T04:30:35.953Z,18.30
2018-09-11T04:31:39.365Z,18.30
2018-09-11T04:32:42.845Z,18.30
2018-09-11T04:33:46.346Z,18.30
2018-09-11T04:34:49.745Z,18.30
2018-09-11T04:35:53.169Z,18.30
2018-09-11T04:36:56.712Z,18.30
2018-09-11T04:38:00.160Z,18.30
2018-09-11T04:39:04.955Z,18.20
2018-09-11T04:40:08.416Z,18.20
2018-09-11T04:41:12.015Z,18.20
2018-09-11T04:42:15.419Z,18.20
2018-09-11T04:43:18.869Z,18.20
2018-09-11T04:44:22.280Z,18.20
2018-09-11T04:45:25.677Z,18.20
2018-09-11T04:46:29.071Z,18.20
2018-09-11T04:47:32.564Z,18.20
2018-09-11T04:48:35.994Z,18.20
2018-09-11T04:49:39.417Z,18.10
2018-09-11T04:50:42.831Z,18.10
2018-09-11T04:51:46.424Z,18.10
2018-09-11T04:52:49.835Z,18.10
2018-09-11T04:53:53.269Z,18.10
2018-09-11T04:54:56.712Z,18.10
2018-09-11T04:56:00.233Z,18.10
2018-09-11T04:57:03.664Z,18.10
2018-09-11T04:58:07.454Z,18.10
2018-09-11T04:59:10.852Z,18.10
2018-09-11T05:00:14.404Z,18.10
2018-09-11T05:01:17.797Z,18.10
2018-09-11T05:02:21.209Z,18.10
2018-09-11T05:03:24.756Z,18.10
2018-09-11T05:04:28.321Z,18.10
2018-09-11T05:05:31.720Z,18.10
2018-09-11T05:06:35.144Z,18.10
2018-09-11T05:07:38.765Z,18.10
2018-09-11T05:08:42.176Z,18.10
2018-09-11T05:09:45.653Z,18.10
2018-09-11T05:10:49.150Z,18.10
2018-09-11T05:11:52.584Z,18.10
2018-09-11T05:12:56.005Z,18.10
2018-09-11T05:13:59.408Z,18.10
2018-09-11T05:15:02.808Z,18.10
2018-09-11T05:16:06.280Z,18.10
2018-09-11T05:17:09.696Z,18.10
2018-09-11T05:18:13.257Z,18.10
2018-09-11T05:19:16.777Z,18.10
2018-09-11T05:20:20.142Z,18.20
2018-09-11T05:21:23.547Z,18.20
2018-09-11T05:22:26.966Z,18.20
2018-09-11T05:23:30.416Z,18.10
2018-09-11T05:24:33.816Z,18.20
2018-09-11T05:25:37.267Z,18.20
2018-09-11T05:26:40.924Z,18.20
2018-09-11T05:27:44.348Z,18.20
2018-09-11T05:28:47.784Z,18.20
2018-09-11T05:29:51.185Z,18.20
2018-09-11T05:30:54.676Z,18.20
2018-09-11T05:31:58.095Z,18.20
2018-09-11T05:33:01.550Z,18.20
2018-09-11T05:34:04.943Z,18.20
2018-09-11T05:35:08.340Z,18.20
2018-09-11T05:36:11.743Z,18.20
2018-09-11T05:37:15.175Z,18.20
2018-09-11T05:38:18.671Z,18.20
2018-09-11T05:39:22.069Z,18.20
2018-09-11T05:40:25.512Z,18.20
2018-09-11T05:41:29.633Z,18.20
2018-09-11T05:42:33.114Z,18.20
2018-09-11T05:43:36.545Z,18.20
2018-09-11T05:44:40.028Z,18.20
2018-09-11T05:45:43.437Z,18.20
2018-09-11T05:46:46.832Z,18.20
2018-09-11T05:47:50.233Z,18.20
2018-09-11T05:48:53.801Z,18.20
2018-09-11T05:49:57.196Z,18.30
2018-09-11T05:51:00.784Z,18.30
2018-09-11T05:52:04.279Z,18.30
2018-09-11T05:53:07.737Z,18.30
2018-09-11T05:54:11.196Z,18.30
2018-09-11T05:55:14.645Z,18.30
2018-09-11T05:56:18.032Z,18.30
2018-09-11T05:57:21.456Z,18.30
2018-09-11T05:58:25.027Z,18.30
2018-09-11T05:59:28.400Z,18.30
2018-09-11T06:00:31.799Z,18.30
2018-09-11T06:01:35.221Z,18.30
2018-09-11T06:02:38.612Z,18.30
2018-09-11T06:03:42.163Z,18.30
2018-09-11T06:04:45.816Z,18.30
2018-09-11T06:05:49.258Z,18.30
2018-09-11T06:06:52.857Z,18.20
2018-09-11T06:07:56.298Z,18.30
2018-09-11T06:08:59.772Z,18.30
2018-09-11T06:10:03.402Z,18.30
2018-09-11T06:11:06.894Z,18.30
2018-09-11T06:12:10.432Z,18.30
2018-09-11T06:13:13.857Z,18.30
2018-09-11T06:14:17.272Z,18.30
2018-09-11T06:15:20.679Z,18.30
2018-09-11T06:16:24.596Z,18.30
2018-09-11T06:17:28.140Z,18.30
2018-09-11T06:18:31.572Z,18.40
2018-09-11T06:19:34.962Z,18.30
2018-09-11T06:20:38.377Z,18.40
2018-09-11T06:21:42.005Z,18.40
2018-09-11T06:22:45.400Z,18.40
2018-09-11T06:23:48.890Z,18.40
2018-09-11T06:24:52.321Z,18.40
2018-09-11T06:25:55.812Z,18.40
2018-09-11T06:26:59.212Z,18.40
2018-09-11T06:28:02.637Z,18.40
2018-09-11T06:29:06.080Z,18.40
2018-09-11T06:30:09.508Z,18.40
2018-09-11T06:31:13.014Z,18.40
2018-09-11T06:32:16.419Z,18.40
2018-09-11T06:33:19.920Z,18.40
2018-09-11T06:34:23.489Z,18.50
2018-09-11T06:35:26.940Z,18.50
2018-09-11T06:36:30.322Z,18.50
2018-09-11T06:37:33.848Z,18.40
2018-09-11T06:38:37.268Z,18.50
2018-09-11T06:39:40.808Z,18.50
2018-09-11T06:40:44.232Z,18.50
2018-09-11T06:41:47.723Z,18.50
2018-09-11T06:42:51.243Z,18.50
2018-09-11T06:43:54.721Z,18.50
2018-09-11T06:44:58.099Z,18.50
2018-09-11T06:46:02.372Z,18.50
2018-09-11T06:47:05.848Z,18.50
2018-09-11T06:48:09.416Z,18.60
2018-09-11T06:49:12.829Z,18.60
2018-09-11T06:50:16.296Z,18.60
2018-09-11T06:51:19.807Z,18.60
2018-09-11T06:52:23.292Z,18.60
2018-09-11T06:53:26.965Z,18.60
2018-09-11T06:54:30.352Z,18.60
2018-09-11T06:55:33.796Z,18.60
2018-09-11T06:56:37.237Z,18.60
2018-09-11T06:57:40.636Z,18.70
2018-09-11T06:58:44.040Z,18.70
2018-09-11T06:59:47.484Z,18.70
2018-09-11T07:00:51.198Z,18.70
2018-09-11T07:01:54.676Z,18.70
2018-09-11T07:02:58.075Z,18.70
2018-09-11T07:04:01.575Z,18.70
2018-09-11T07:05:04.981Z,18.70
2018-09-11T07:06:08.428Z,18.70
2018-09-11T07:07:11.936Z,18.70
2018-09-11T07:08:15.431Z,18.70
2018-09-11T07:09:18.841Z,18.70
2018-09-11T07:10:22.259Z,18.70
2018-09-11T07:11:25.733Z,18.70
2018-09-11T07:12:29.144Z,18.80
2018-09-11T07:13:32.556Z,18.80
2018-09-11T07:14:35.954Z,18.80
2018-09-11T07:15:39.444Z,18.80
2018-09-11T07:16:43.028Z,18.90
2018-09-11T07:17:46.407Z,18.90
2018-09-11T07:18:49.832Z,18.90
2018-09-11T07:19:53.372Z,18.90
2018-09-11T07:20:56.694Z,18.90
2018-09-11T07:22:00.180Z,19.00
2018-09-11T07:23:03.583Z,18.90
2018-09-11T07:24:07.539Z,18.90
2018-09-11T07:25:10.980Z,18.90
2018-09-11T07:26:14.958Z,18.90
2018-09-11T07:27:18.441Z,18.90
2018-09-11T07:28:22.156Z,19.00
2018-09-11T07:29:25.629Z,19.00
2018-09-11T07:30:29.083Z,19.00
2018-09-11T07:31:32.521Z,19.00
2018-09-11T07:32:36.089Z,19.00
2018-09-11T07:33:39.481Z,19.00
2018-09-11T07:34:42.957Z,19.00
2018-09-11T07:35:46.453Z,19.00
2018-09-11T07:36:50.165Z,19.00
2018-09-11T07:37:53.583Z,19.10
2018-09-11T07:38:57.107Z,19.10
2018-09-11T07:40:00.559Z,19.10
2018-09-11T07:41:03.980Z,19.10
2018-09-11T07:42:07.417Z,19.10
2018-09-11T07:43:10.795Z,19.10
2018-09-11T07:44:14.320Z,19.10
2018-09-11T07:45:17.842Z,19.10
2018-09-11T07:46:21.224Z,19.10
2018-09-11T07:47:24.700Z,19.10
2018-09-11T07:48:28.166Z,19.10
2018-09-11T07:49:31.608Z,19.10
2018-09-11T07:50:35.036Z,19.10
2018-09-11T07:51:38.428Z,19.20
2018-09-11T07:52:41.990Z,19.10
2018-09-11T07:53:45.297Z,19.20
2018-09-11T07:54:48.696Z,19.20
2018-09-11T07:55:52.208Z,19.20
2018-09-11T07:56:55.640Z,19.20
2018-09-11T07:57:59.120Z,19.20
2018-09-11T07:59:02.651Z,19.20
2018-09-11T08:00:06.596Z,19.20
2018-09-11T08:01:10.026Z,19.20
2018-09-11T08:02:13.436Z,19.20
2018-09-11T08:03:16.856Z,19.20
2018-09-11T08:04:20.295Z,19.20
2018-09-11T08:05:23.733Z,19.30
2018-09-11T08:06:27.160Z,19.30
2018-09-11T08:07:30.584Z,19.30
2018-09-11T08:08:34.152Z,19.30
2018-09-11T08:09:37.576Z,19.30
2018-09-11T08:10:41.009Z,19.30
2018-09-11T08:11:44.407Z,19.40
2018-09-11T08:12:48.061Z,19.40
2018-09-11T08:13:51.459Z,19.40
2018-09-11T08:14:54.993Z,19.40
2018-09-11T08:15:58.425Z,19.40
2018-09-11T08:17:01.803Z,19.50
2018-09-11T08:18:05.695Z,19.50
2018-09-11T08:19:09.088Z,19.50
2018-09-11T08:20:12.646Z,19.50
2018-09-11T08:21:16.121Z,19.50
2018-09-11T08:22:19.693Z,19.50
2018-09-11T08:23:23.095Z,19.60
2018-09-11T08:24:26.600Z,19.60
2018-09-11T08:25:30.024Z,19.60
2018-09-11T08:26:33.436Z,19.60
2018-09-11T08:27:36.927Z,19.60
2018-09-11T08:28:40.332Z,19.60
2018-09-11T08:29:43.912Z,19.60
2018-09-11T08:30:47.353Z,19.60
2018-09-11T08:31:50.845Z,19.70
2018-09-11T08:32:54.282Z,19.70
2018-09-11T08:33:57.941Z,19.70
2018-09-11T08:35:01.373Z,19.70
2018-09-11T08:36:04.760Z,19.70
2018-09-11T08:37:08.215Z,19.80
2018-09-11T08:38:11.641Z,19.80
2018-09-11T08:39:15.128Z,19.80
2018-09-11T08:40:18.548Z,19.80
2018-09-11T08:41:22.052Z,19.80
2018-09-11T08:42:25.480Z,19.80
2018-09-11T08:43:28.889Z,19.80
2018-09-11T08:44:32.352Z,19.80
2018-09-11T08:45:35.776Z,19.90
2018-09-11T08:46:39.243Z,19.90
2018-09-11T08:47:42.688Z,19.90
2018-09-11T08:48:46.114Z,19.90
2018-09-11T08:49:49.558Z,19.90
2018-09-11T08:50:52.993Z,20.00
2018-09-11T08:51:56.380Z,20.00
2018-09-11T08:52:59.780Z,20.00
2018-09-11T08:54:03.213Z,20.10
2018-09-11T08:55:06.967Z,20.10
2018-09-11T08:56:10.648Z,20.10
2018-09-11T08:57:14.089Z,20.10
2018-09-11T08:58:17.501Z,20.10
2018-09-11T08:59:20.967Z,20.20
2018-09-11T09:00:24.412Z,20.20
2018-09-11T09:01:27.969Z,20.20
2018-09-11T09:02:31.436Z,20.20
2018-09-11T09:03:34.920Z,20.20
2018-09-11T09:04:38.499Z,20.30
2018-09-11T09:05:41.901Z,20.30
2018-09-11T09:06:45.295Z,20.30
2018-09-11T09:07:48.809Z,20.30
2018-09-11T09:08:52.242Z,20.30
2018-09-11T09:09:55.864Z,20.30
2018-09-11T09:10:59.289Z,20.30
2018-09-11T09:12:02.745Z,20.30
2018-09-11T09:13:06.233Z,20.40
2018-09-11T09:14:09.757Z,20.40
2018-09-11T09:15:13.185Z,20.50
2018-09-11T09:16:16.660Z,20.50
2018-09-11T09:17:20.180Z,20.50
2018-09-11T09:18:23.570Z,20.50
2018-09-11T09:19:26.983Z,20.60
2018-09-11T09:20:30.399Z,20.60
2018-09-11T09:21:33.796Z,20.60
2018-09-11T09:22:37.318Z,20.60
2018-09-11T09:23:40.722Z,20.60
2018-09-11T09:24:44.121Z,20.60
2018-09-11T09:25:47.709Z,20.70
2018-09-11T09:26:51.119Z,20.70
2018-09-11T09:27:54.659Z,20.70
2018-09-11T09:28:58.152Z,20.80
2018-09-11T09:30:01.684Z,20.80
2018-09-11T09:31:05.073Z,20.80
2018-09-11T09:32:08.492Z,20.80
2018-09-11T09:33:11.963Z,20.80
2018-09-11T09:34:15.447Z,20.80
2018-09-11T09:35:18.883Z,20.90
2018-09-11T09:36:22.511Z,20.90
2018-09-11T09:37:25.925Z,20.90
2018-09-11T09:38:29.324Z,20.90
2018-09-11T09:39:32.833Z,21.00
2018-09-11T09:40:36.237Z,21.00
2018-09-11T09:41:39.695Z,21.00
2018-09-11T09:42:43.149Z,21.10
2018-09-11T09:43:46.633Z,21.10
2018-09-11T09:44:49.989Z,21.10
2018-09-11T09:45:53.436Z,21.20
2018-09-11T09:46:56.932Z,21.20
2018-09-11T09:48:00.380Z,21.20
2018-09-11T09:49:03.801Z,21.20
2018-09-11T09:50:07.215Z,21.20
2018-09-11T09:51:10.624Z,21.30
2018-09-11T09:52:14.060Z,21.20
2018-09-11T09:53:17.480Z,21.20
2018-09-11T09:54:20.897Z,21.30
2018-09-11T09:55:24.369Z,21.30
2018-09-11T09:56:27.762Z,21.30
2018-09-11T09:57:31.248Z,21.30
2018-09-11T09:58:34.788Z,21.40
2018-09-11T09:59:38.393Z,21.40
2018-09-11T10:00:47.216Z,21.40
2018-09-11T10:01:55.958Z,21.40
2018-09-11T10:02:59.345Z,21.40
2018-09-11T10:04:02.794Z,21.40
2018-09-11T10:05:06.272Z,21.40
2018-09-11T10:06:09.712Z,21.40
2018-09-11T10:07:13.097Z,21.40
2018-09-11T10:08:16.558Z,21.50
2018-09-11T10:09:19.947Z,21.50
2018-09-11T10:10:23.565Z,21.50
2018-09-11T10:11:26.950Z,21.50
2018-09-11T10:12:30.451Z,21.50
2018-09-11T10:13:33.928Z,21.50
2018-09-11T10:14:37.401Z,21.50
2018-09-11T10:15:40.832Z,21.50
2018-09-11T10:16:44.298Z,21.60
2018-09-11T10:17:47.716Z,21.60
2018-09-11T10:18:51.202Z,21.60
2018-09-11T10:19:54.660Z,21.60
2018-09-11T10:20:58.092Z,21.60
2018-09-11T10:22:01.673Z,21.60
2018-09-11T10:23:05.168Z,21.60
2018-09-11T10:24:08.620Z,21.60
2018-09-11T10:25:12.035Z,21.60
2018-09-11T10:26:15.560Z,21.70
2018-09-11T10:27:19.012Z,21.70
2018-09-11T10:28:22.453Z,21.70
2018-09-11T10:29:25.964Z,21.70
2018-09-11T10:30:29.485Z,21.70
2018-09-11T10:31:32.944Z,21.70
2018-09-11T10:32:36.408Z,21.80
2018-09-11T10:33:39.837Z,21.80
2018-09-11T10:34:43.373Z,21.80
2018-09-11T10:35:46.797Z,21.80
2018-09-11T10:36:50.190Z,21.80
2018-09-11T10:37:53.621Z,21.80
2018-09-11T10:38:57.014Z,21.80
2018-09-11T10:40:00.447Z,21.80
2018-09-11T10:41:03.957Z,21.80
2018-09-11T10:42:07.384Z,21.90
2018-09-11T10:43:10.810Z,21.90
2018-09-11T10:44:14.213Z,21.90
2018-09-11T10:45:17.640Z,22.00
2018-09-11T10:46:21.046Z,22.00
2018-09-11T10:47:24.451Z,22.00
2018-09-11T10:48:27.859Z,22.10
2018-09-11T10:49:31.598Z,22.10
2018-09-11T10:50:35.015Z,22.20
2018-09-11T10:51:38.830Z,22.20
2018-09-11T10:52:42.252Z,22.20
2018-09-11T10:53:45.704Z,22.20
2018-09-11T10:54:49.119Z,22.30
2018-09-11T10:55:52.588Z,22.30
2018-09-11T10:56:56.173Z,22.30
2018-09-11T10:57:59.610Z,22.30
2018-09-11T10:59:03.092Z,22.40
2018-09-11T11:00:06.546Z,22.40
2018-09-11T11:01:09.952Z,22.40
2018-09-11T11:02:13.341Z,22.40
2018-09-11T11:03:16.765Z,22.40
2018-09-11T11:04:20.224Z,22.40
2018-09-11T11:05:23.660Z,22.40
2018-09-11T11:06:27.121Z,22.40
2018-09-11T11:07:30.680Z,22.40
2018-09-11T11:08:34.163Z,22.40
2018-09-11T11:09:37.576Z,22.40
2018-09-11T11:10:41.049Z,22.40
2018-09-11T11:11:44.530Z,22.40
2018-09-11T11:12:47.928Z,22.50
2018-09-11T11:13:51.360Z,22.50
2018-09-11T11:14:54.778Z,22.50
2018-09-11T11:15:58.190Z,22.50
2018-09-11T11:17:01.683Z,22.50
2018-09-11T11:18:05.408Z,22.50
2018-09-11T11:19:08.804Z,22.50
2018-09-11T11:20:12.228Z,22.50
2018-09-11T11:21:15.656Z,22.50
2018-09-11T11:22:19.065Z,22.50
2018-09-11T11:23:22.548Z,22.50
2018-09-11T11:24:26.041Z,22.50
2018-09-11T11:25:29.446Z,22.60
2018-09-11T11:26:32.899Z,22.60
2018-09-11T11:27:36.403Z,22.70
2018-09-11T11:28:39.996Z,22.70
2018-09-11T11:29:43.822Z,22.80
2018-09-11T11:30:47.276Z,22.80
2018-09-11T11:31:50.692Z,22.80
2018-09-11T11:32:54.110Z,22.80
2018-09-11T11:33:57.658Z,22.80
2018-09-11T11:35:01.128Z,22.80
2018-09-11T11:36:04.680Z,22.80
2018-09-11T11:37:08.191Z,22.90
2018-09-11T11:38:11.575Z,23.00
2018-09-11T11:39:14.960Z,23.00
2018-09-11T11:40:18.513Z,23.00
2018-09-11T11:41:21.938Z,23.00
2018-09-11T11:42:25.464Z,23.00
2018-09-11T11:43:28.803Z,23.00
2018-09-11T11:44:32.244Z,23.10
2018-09-11T11:45:35.678Z,23.10
2018-09-11T11:46:39.254Z,23.10
2018-09-11T11:47:42.717Z,23.10
2018-09-11T11:48:46.196Z,23.10
2018-09-11T11:49:50.920Z,23.10
2018-09-11T11:50:54.448Z,23.20
2018-09-11T11:51:57.869Z,23.10
2018-09-11T11:53:01.407Z,23.10
2018-09-11T11:54:04.797Z,23.20
2018-09-11T11:55:08.288Z,23.20
2018-09-11T11:56:11.728Z,23.20
2018-09-11T11:57:15.273Z,23.20
2018-09-11T11:58:18.715Z,23.20
2018-09-11T11:59:22.168Z,23.20
2018-09-11T12:00:25.677Z,23.20
2018-09-11T12:01:29.146Z,23.10
2018-09-11T12:02:32.533Z,23.10
2018-09-11T12:03:35.973Z,23.20
2018-09-11T12:04:39.507Z,23.20
2018-09-11T12:05:42.933Z,23.20
2018-09-11T12:06:46.379Z,23.20
2018-09-11T12:07:49.824Z,23.30
2018-09-11T12:08:53.239Z,23.30
2018-09-11T12:09:56.644Z,23.40
2018-09-11T12:11:00.140Z,23.40
2018-09-11T12:12:03.593Z,23.40
2018-09-11T12:13:07.049Z,23.40
2018-09-11T12:14:10.500Z,23.40
2018-09-11T12:15:13.924Z,23.30
2018-09-11T12:16:17.354Z,23.30
2018-09-11T12:17:20.761Z,23.30
2018-09-11T12:18:24.178Z,23.30
2018-09-11T12:19:27.694Z,23.30
2018-09-11T12:20:31.219Z,23.20
2018-09-11T12:21:34.621Z,23.20
2018-09-11T12:22:38.093Z,23.30
2018-09-11T12:23:41.503Z,23.30
2018-09-11T12:24:44.963Z,23.30
2018-09-11T12:25:48.404Z,23.30
2018-09-11T12:26:52.023Z,23.30
2018-09-11T12:27:55.416Z,23.40
2018-09-11T12:28:58.847Z,23.40
2018-09-11T12:30:02.261Z,23.50
2018-09-11T12:31:05.840Z,23.50
2018-09-11T12:32:09.208Z,23.50
2018-09-11T12:33:12.684Z,23.60
2018-09-11T12:34:16.085Z,23.60
2018-09-11T12:35:19.562Z,23.60
2018-09-11T12:36:22.972Z,23.60
2018-09-11T12:37:26.380Z,23.60
2018-09-11T12:38:29.800Z,23.60
2018-09-11T12:39:33.264Z,23.60
2018-09-11T12:40:36.668Z,23.60
2018-09-11T12:41:40.210Z,23.60
2018-09-11T12:42:43.714Z,23.60
2018-09-11T12:43:47.128Z,23.60
2018-09-11T12:44:50.583Z,23.60
2018-09-11T12:45:54.174Z,23.60
2018-09-11T12:46:57.616Z,23.70
2018-09-11T12:48:01.427Z,23.70
2018-09-11T12:49:04.387Z,23.70
2018-09-11T12:50:07.780Z,23.80
2018-09-11T12:51:11.244Z,23.80
2018-09-11T12:52:14.885Z,23.80
2018-09-11T12:53:18.360Z,23.90
2018-09-11T12:54:21.760Z,23.90
2018-09-11T12:55:25.180Z,23.90
2018-09-11T12:56:28.606Z,23.90
2018-09-11T12:57:32.039Z,23.90
2018-09-11T12:58:35.483Z,23.90
2018-09-11T12:59:38.913Z,23.90
2018-09-11T13:00:42.324Z,23.90
2018-09-11T13:01:45.814Z,24.00
2018-09-11T13:02:49.276Z,24.00
2018-09-11T13:03:52.701Z,24.00
2018-09-11T13:04:56.145Z,24.00
2018-09-11T13:05:59.807Z,24.00
2018-09-11T13:07:03.344Z,24.10
2018-09-11T13:08:06.760Z,24.10
2018-09-11T13:09:10.185Z,24.20
2018-09-11T13:10:13.619Z,24.10
2018-09-11T13:11:17.049Z,24.10
2018-09-11T13:12:20.442Z,24.10
2018-09-11T13:13:23.896Z,24.10
2018-09-11T13:14:27.307Z,24.20
2018-09-11T13:15:30.786Z,24.20
2018-09-11T13:16:40.771Z,24.20
2018-09-11T13:17:44.256Z,24.20
2018-09-11T13:18:47.893Z,24.30
2018-09-11T13:19:51.332Z,24.30
2018-09-11T13:20:54.751Z,24.30
2018-09-11T13:21:58.230Z,24.30
2018-09-11T13:23:01.636Z,24.30
2018-09-11T13:24:05.132Z,24.30
2018-09-11T13:25:08.568Z,24.40
2018-09-11T13:26:11.966Z,24.40
2018-09-11T13:27:15.536Z,24.40
2018-09-11T13:28:18.949Z,24.40
2018-09-11T13:29:22.366Z,24.50
2018-09-11T13:30:25.800Z,24.50
2018-09-11T13:31:29.307Z,24.50
2018-09-11T13:32:32.728Z,24.60
2018-09-11T13:33:36.184Z,24.60
2018-09-11T13:34:39.594Z,24.60
2018-09-11T13:35:43.001Z,24.60
2018-09-11T13:36:46.395Z,24.70
2018-09-11T13:37:49.880Z,24.60